createdAt,value
2022-10-20T00:00:27.087Z,2.60
2022-10-20T00:01:27.163Z,3.50
2022-10-20T00:02:27.084Z,2.70
2022-10-20T00:03:27.044Z,3.10
2022-10-20T00:04:33.345Z,3.40
2022-10-20T00:05:28.033Z,2.60
2022-10-20T00:06:26.991Z,2.60
2022-10-20T00:07:27.121Z,2.70
2022-10-20T00:08:27.089Z,2.90
2022-10-20T00:09:33.683Z,3.10
2022-10-20T00:10:27.248Z,3.00
2022-10-20T00:11:26.936Z,2.90
2022-10-20T00:12:26.982Z,3.00
2022-10-20T00:13:30.929Z,2.90
2022-10-20T00:14:34.172Z,3.80
2022-10-20T00:15:26.945Z,2.40
2022-10-20T00:16:26.876Z,2.70
2022-10-20T00:17:26.932Z,2.90
2022-10-20T00:18:27.174Z,2.80
2022-10-20T00:19:37.265Z,2.80
2022-10-20T00:20:26.914Z,2.40
2022-10-20T00:21:26.797Z,2.60
2022-10-20T00:22:26.872Z,3.00
2022-10-20T00:23:26.773Z,3.20
2022-10-20T00:24:33.541Z,2.60
2022-10-20T00:25:26.803Z,2.70
2022-10-20T00:26:27.119Z,2.20
2022-10-20T00:27:26.787Z,2.50
2022-10-20T00:28:26.769Z,2.80
2022-10-20T00:29:33.335Z,2.70
2022-10-20T00:30:26.735Z,2.90
2022-10-20T00:31:26.688Z,2.60
2022-10-20T00:32:26.692Z,2.50
2022-10-20T00:33:26.643Z,3.30
2022-10-20T00:34:32.930Z,2.50
2022-10-20T00:35:26.672Z,2.60
2022-10-20T00:36:26.641Z,2.40
2022-10-20T00:37:26.662Z,2.10
2022-10-20T00:38:26.728Z,2.70
2022-10-20T00:39:33.288Z,2.30
2022-10-20T00:40:26.671Z,2.00
2022-10-20T00:41:26.575Z,2.30
2022-10-20T00:42:26.551Z,2.30
2022-10-20T00:43:26.626Z,2.10
2022-10-20T00:44:33.178Z,2.90
2022-10-20T00:45:26.782Z,2.30
2022-10-20T00:46:26.560Z,2.10
2022-10-20T00:47:26.540Z,2.70
2022-10-20T00:48:26.528Z,2.20
2022-10-20T00:49:33.084Z,2.80
2022-10-20T00:50:26.454Z,2.50
2022-10-20T00:51:26.465Z,2.20
2022-10-20T00:52:26.490Z,2.20
2022-10-20T00:53:26.687Z,2.20
2022-10-20T00:54:26.379Z,2.20
2022-10-20T00:55:32.738Z,2.00
2022-10-20T00:56:26.391Z,2.80
2022-10-20T00:57:26.407Z,2.40
2022-10-20T00:58:26.476Z,2.60
2022-10-20T00:59:26.339Z,2.50
2022-10-20T01:00:32.629Z,2.00
2022-10-20T01:01:26.416Z,2.40
2022-10-20T01:02:26.334Z,2.40
2022-10-20T01:03:41.877Z,2.40
2022-10-20T01:04:26.274Z,2.20
2022-10-20T01:06:09.618Z,2.60
2022-10-20T01:07:09.277Z,2.50
2022-10-20T01:08:09.400Z,2.40
2022-10-20T01:09:09.402Z,2.40
2022-10-20T01:10:09.342Z,2.50
2022-10-20T01:11:15.966Z,1.90
2022-10-20T01:12:09.334Z,2.40
2022-10-20T01:13:09.332Z,2.30
2022-10-20T01:14:09.286Z,2.20
2022-10-20T01:15:09.227Z,2.00
2022-10-20T01:16:09.223Z,2.10
2022-10-20T01:17:15.869Z,2.40
2022-10-20T01:18:10.272Z,2.20
2022-10-20T01:19:09.158Z,1.90
2022-10-20T01:20:09.180Z,2.50
2022-10-20T01:21:09.316Z,1.70
2022-10-20T01:22:15.467Z,2.40
2022-10-20T01:23:09.166Z,2.20
2022-10-20T01:24:09.404Z,2.30
2022-10-20T01:25:09.085Z,2.40
2022-10-20T01:26:09.010Z,2.50
2022-10-20T01:27:15.363Z,1.90
2022-10-20T01:28:09.024Z,2.10
2022-10-20T01:29:09.078Z,2.20
2022-10-20T01:30:08.964Z,2.30
2022-10-20T01:31:08.953Z,2.20
2022-10-20T01:32:08.963Z,2.50
2022-10-20T01:33:15.230Z,2.20
2022-10-20T01:34:08.969Z,1.80
2022-10-20T01:35:08.960Z,2.10
2022-10-20T01:36:08.908Z,2.70
2022-10-20T01:37:08.869Z,2.00
2022-10-20T01:38:15.598Z,2.20
2022-10-20T01:39:08.874Z,2.40
2022-10-20T01:40:08.861Z,2.60
2022-10-20T01:41:08.858Z,2.20
2022-10-20T01:42:08.882Z,2.30
2022-10-20T01:43:15.209Z,2.50
2022-10-20T01:44:08.829Z,2.20
2022-10-20T01:45:08.819Z,2.20
2022-10-20T01:46:08.934Z,2.60
2022-10-20T01:47:08.823Z,2.80
2022-10-20T01:48:08.724Z,1.80
2022-10-20T01:49:15.037Z,2.80
2022-10-20T01:50:08.725Z,2.10
2022-10-20T01:51:08.773Z,2.20
2022-10-20T01:52:08.725Z,2.10
2022-10-20T01:53:08.741Z,2.20
2022-10-20T01:54:15.219Z,2.40
2022-10-20T01:55:08.798Z,2.50
2022-10-20T01:56:08.673Z,2.20
2022-10-20T01:57:09.017Z,2.40
2022-10-20T01:58:08.618Z,2.40
2022-10-20T01:59:08.704Z,2.20
2022-10-20T02:00:15.817Z,2.00
2022-10-20T02:01:08.572Z,2.30
2022-10-20T02:02:08.689Z,2.60
2022-10-20T02:03:12.289Z,2.30
2022-10-20T02:04:08.578Z,2.40
2022-10-20T02:05:15.439Z,2.10
2022-10-20T02:06:08.521Z,2.50
2022-10-20T02:07:08.689Z,2.80
2022-10-20T02:08:08.786Z,2.40
2022-10-20T02:09:08.530Z,2.50
2022-10-20T02:10:08.451Z,2.60
2022-10-20T02:11:14.896Z,2.10
2022-10-20T02:12:09.244Z,2.40
2022-10-20T02:13:08.636Z,3.10
2022-10-20T02:14:08.637Z,2.20
2022-10-20T02:15:08.384Z,2.70
2022-10-20T02:16:08.437Z,2.30
2022-10-20T02:17:15.016Z,2.60
2022-10-20T02:18:08.367Z,2.10
2022-10-20T02:19:08.345Z,2.30
2022-10-20T02:20:08.360Z,2.50
2022-10-20T02:21:08.284Z,3.30
2022-10-20T02:22:14.610Z,2.40
2022-10-20T02:23:08.288Z,2.70
2022-10-20T02:24:08.280Z,2.30
2022-10-20T02:25:08.719Z,2.30
2022-10-20T02:26:08.199Z,2.50
2022-10-20T02:27:08.273Z,2.60
2022-10-20T02:28:14.496Z,2.30
2022-10-20T02:29:08.223Z,2.50
2022-10-20T02:30:08.244Z,2.40
2022-10-20T02:31:08.319Z,2.20
2022-10-20T02:32:08.285Z,2.40
2022-10-20T02:33:23.315Z,2.40
2022-10-20T02:34:08.184Z,2.40
2022-10-20T02:35:08.305Z,3.00
2022-10-20T02:36:08.243Z,3.00
2022-10-20T02:37:08.234Z,2.20
2022-10-20T02:38:08.090Z,1.90
2022-10-20T02:39:14.489Z,2.10
2022-10-20T02:40:08.386Z,2.20
2022-10-20T02:41:08.186Z,2.20
2022-10-20T02:42:08.260Z,2.00
2022-10-20T02:43:08.313Z,2.40
2022-10-20T02:44:14.994Z,2.40
2022-10-20T02:45:08.068Z,2.40
2022-10-20T02:46:08.078Z,2.70
2022-10-20T02:47:07.948Z,2.50
2022-10-20T02:48:08.031Z,2.00
2022-10-20T02:49:09.791Z,2.00
2022-10-20T02:50:15.091Z,2.10
2022-10-20T02:51:08.852Z,2.00
2022-10-20T02:52:07.939Z,2.30
2022-10-20T02:53:07.948Z,1.80
2022-10-20T02:54:07.862Z,1.90
2022-10-20T02:55:08.235Z,1.80
2022-10-20T02:56:08.195Z,2.00
2022-10-20T02:57:08.145Z,2.20
2022-10-20T02:58:07.804Z,2.20
2022-10-20T02:59:08.163Z,2.00
2022-10-20T03:00:08.536Z,2.00
2022-10-20T03:01:07.867Z,2.00
2022-10-20T03:02:14.545Z,1.90
2022-10-20T03:03:09.231Z,2.90
2022-10-20T03:04:08.033Z,2.30
2022-10-20T03:05:07.883Z,2.50
2022-10-20T03:06:07.796Z,2.20
2022-10-20T03:07:14.051Z,1.90
2022-10-20T03:08:07.783Z,2.20
2022-10-20T03:09:07.721Z,2.00
2022-10-20T03:10:07.729Z,2.00
2022-10-20T03:11:07.672Z,2.10
2022-10-20T03:12:18.295Z,2.20
2022-10-20T03:13:07.709Z,2.30
2022-10-20T03:14:08.193Z,2.50
2022-10-20T03:15:07.694Z,2.30
2022-10-20T03:16:07.541Z,2.40
2022-10-20T03:17:13.959Z,1.90
2022-10-20T03:18:07.614Z,2.20
2022-10-20T03:19:11.327Z,1.90
2022-10-20T03:20:07.630Z,2.50
2022-10-20T03:21:07.633Z,2.50
2022-10-20T03:22:07.525Z,2.40
2022-10-20T03:23:16.437Z,2.40
2022-10-20T03:24:08.982Z,2.40
2022-10-20T03:25:07.533Z,2.00
2022-10-20T03:26:07.456Z,2.50
2022-10-20T03:27:07.757Z,2.40
2022-10-20T03:28:14.575Z,2.30
2022-10-20T03:29:07.411Z,2.30
2022-10-20T03:30:07.739Z,2.20
2022-10-20T03:31:07.437Z,2.00
2022-10-20T03:32:07.339Z,2.30
2022-10-20T03:33:07.622Z,2.50
2022-10-20T03:34:13.718Z,1.90
2022-10-20T03:35:07.862Z,1.80
2022-10-20T03:36:08.806Z,2.40
2022-10-20T03:37:07.283Z,2.30
2022-10-20T03:38:07.418Z,2.30
2022-10-20T03:39:07.354Z,1.90
2022-10-20T03:40:13.552Z,1.80
2022-10-20T03:41:07.356Z,2.30
2022-10-20T03:42:07.236Z,2.10
2022-10-20T03:43:07.749Z,2.20
2022-10-20T03:44:07.230Z,1.80
2022-10-20T03:45:08.219Z,2.00
2022-10-20T03:46:14.087Z,2.00
2022-10-20T03:47:08.028Z,2.60
2022-10-20T03:48:07.589Z,2.70
2022-10-20T03:49:07.293Z,2.00
2022-10-20T03:50:07.233Z,2.40
2022-10-20T03:51:07.140Z,2.50
2022-10-20T03:52:13.587Z,2.30
2022-10-20T03:53:07.156Z,2.00
2022-10-20T03:54:07.220Z,2.40
2022-10-20T03:55:07.167Z,2.40
2022-10-20T03:56:07.059Z,2.10
2022-10-20T03:57:15.358Z,2.20
2022-10-20T03:58:07.208Z,2.10
2022-10-20T03:59:07.052Z,2.10
2022-10-20T04:00:07.098Z,2.00
2022-10-20T04:01:07.064Z,2.60
2022-10-20T04:02:07.387Z,2.40
2022-10-20T04:03:13.525Z,1.90
2022-10-20T04:04:06.989Z,2.00
2022-10-20T04:05:07.069Z,2.20
2022-10-20T04:06:07.056Z,1.80
2022-10-20T04:07:07.283Z,2.40
2022-10-20T04:08:06.978Z,2.50
2022-10-20T04:09:14.123Z,2.10
2022-10-20T04:10:06.918Z,2.10
2022-10-20T04:11:06.866Z,2.70
2022-10-20T04:12:06.871Z,2.20
2022-10-20T04:13:09.168Z,2.30
2022-10-20T04:14:06.920Z,2.10
2022-10-20T04:15:13.532Z,2.90
2022-10-20T04:16:06.969Z,2.30
2022-10-20T04:17:06.834Z,2.00
2022-10-20T04:18:06.817Z,2.40
2022-10-20T04:19:06.822Z,2.70
2022-10-20T04:20:13.127Z,2.80
2022-10-20T04:21:06.866Z,2.80
2022-10-20T04:22:06.742Z,2.30
2022-10-20T04:23:06.813Z,2.60
2022-10-20T04:24:06.687Z,2.50
2022-10-20T04:25:06.767Z,2.60
2022-10-20T04:26:13.255Z,2.10
2022-10-20T04:27:06.764Z,2.40
2022-10-20T04:28:06.706Z,2.60
2022-10-20T04:29:06.756Z,2.40
2022-10-20T04:30:06.878Z,3.40
2022-10-20T04:31:07.573Z,2.30
2022-10-20T04:32:12.888Z,2.70
2022-10-20T04:33:06.738Z,2.50
2022-10-20T04:34:06.855Z,2.50
2022-10-20T04:35:06.789Z,2.30
2022-10-20T04:36:06.583Z,2.20
2022-10-20T04:37:17.113Z,2.30
2022-10-20T04:38:06.640Z,2.40
2022-10-20T04:39:06.779Z,2.70
2022-10-20T04:40:06.637Z,2.40
2022-10-20T04:41:06.807Z,2.20
2022-10-20T04:42:07.252Z,2.30
2022-10-20T04:43:12.973Z,2.60
2022-10-20T04:44:06.484Z,3.00
2022-10-20T04:45:07.992Z,2.20
2022-10-20T04:46:08.377Z,2.40
2022-10-20T04:47:06.822Z,2.50
2022-10-20T04:48:12.797Z,2.80
2022-10-20T04:49:06.398Z,2.60
2022-10-20T04:50:06.451Z,2.40
2022-10-20T04:51:06.552Z,2.60
2022-10-20T04:52:06.369Z,2.90
2022-10-20T04:53:12.681Z,2.80
2022-10-20T04:54:06.458Z,2.70
2022-10-20T04:55:06.396Z,3.20
2022-10-20T04:56:06.304Z,2.20
2022-10-20T04:57:06.265Z,2.80
2022-10-20T04:58:06.660Z,2.90
2022-10-20T04:59:13.711Z,2.40
2022-10-20T05:00:06.275Z,2.40
2022-10-20T05:01:06.592Z,2.70
2022-10-20T05:02:06.246Z,2.70
2022-10-20T05:03:06.425Z,2.60
2022-10-20T05:04:06.290Z,2.50
2022-10-20T05:05:12.500Z,3.00
2022-10-20T05:06:06.443Z,3.10
2022-10-20T05:07:06.119Z,2.90
2022-10-20T05:08:06.189Z,2.70
2022-10-20T05:09:06.274Z,3.00
2022-10-20T05:10:06.183Z,3.10
2022-10-20T05:11:12.492Z,2.70
2022-10-20T05:12:06.227Z,2.90
2022-10-20T05:13:06.082Z,2.90
2022-10-20T05:14:06.081Z,3.20
2022-10-20T05:15:06.020Z,3.00
2022-10-20T05:16:13.322Z,2.90
2022-10-20T05:17:09.225Z,3.10
2022-10-20T05:18:06.025Z,3.00
2022-10-20T05:19:06.104Z,2.90
2022-10-20T05:20:05.962Z,2.70
2022-10-20T05:21:12.763Z,2.70
2022-10-20T05:22:06.005Z,3.00
2022-10-20T05:23:05.968Z,2.80
2022-10-20T05:24:06.021Z,2.80
2022-10-20T05:25:31.357Z,2.60
2022-10-20T05:26:13.553Z,3.20
2022-10-20T05:27:05.980Z,3.00
2022-10-20T05:28:05.879Z,3.20
2022-10-20T05:29:06.885Z,3.00
2022-10-20T05:30:06.187Z,3.80
2022-10-20T05:31:05.875Z,3.80
2022-10-20T05:32:12.298Z,3.60
2022-10-20T05:33:05.857Z,3.20
2022-10-20T05:34:05.901Z,3.40
2022-10-20T05:35:06.088Z,3.20
2022-10-20T05:36:05.807Z,2.90
2022-10-20T05:37:12.099Z,3.40
2022-10-20T05:38:05.778Z,4.30
2022-10-20T05:39:05.805Z,3.30
2022-10-20T05:40:06.038Z,3.40
2022-10-20T05:41:05.699Z,4.40
2022-10-20T05:42:12.327Z,3.60
2022-10-20T05:43:05.679Z,3.60
2022-10-20T05:44:05.752Z,3.30
2022-10-20T05:45:05.713Z,3.60
2022-10-20T05:46:05.891Z,3.30
2022-10-20T05:47:05.752Z,3.90
2022-10-20T05:48:12.379Z,3.90
2022-10-20T05:49:05.723Z,3.60
2022-10-20T05:50:05.951Z,3.70
2022-10-20T05:51:07.486Z,4.00
2022-10-20T05:52:06.006Z,3.40
2022-10-20T05:53:05.654Z,3.30
2022-10-20T05:54:12.264Z,3.70
2022-10-20T05:55:05.563Z,3.60
2022-10-20T05:56:05.850Z,3.50
2022-10-20T05:57:05.897Z,3.80
2022-10-20T05:58:06.301Z,4.40
2022-10-20T05:59:05.522Z,4.00
2022-10-20T06:00:12.243Z,3.90
2022-10-20T06:01:05.588Z,3.20
2022-10-20T06:02:05.467Z,3.80
2022-10-20T06:03:05.613Z,3.90
2022-10-20T06:04:05.628Z,3.80
2022-10-20T06:05:05.534Z,4.30
2022-10-20T06:06:12.265Z,3.20
2022-10-20T06:07:05.764Z,3.70
2022-10-20T06:08:06.529Z,4.20
2022-10-20T06:09:05.969Z,3.80
2022-10-20T06:10:05.443Z,3.70
2022-10-20T06:11:11.701Z,4.40
2022-10-20T06:12:05.374Z,3.80
2022-10-20T06:13:05.364Z,3.90
2022-10-20T06:14:05.581Z,3.50
2022-10-20T06:15:05.453Z,3.70
2022-10-20T06:16:12.342Z,3.90
2022-10-20T06:17:05.515Z,4.30
2022-10-20T06:18:05.293Z,3.90
2022-10-20T06:19:05.345Z,3.70
2022-10-20T06:20:05.384Z,4.10
2022-10-20T06:21:05.249Z,4.20
2022-10-20T06:22:14.346Z,4.10
2022-10-20T06:23:05.244Z,3.90
2022-10-20T06:24:05.746Z,4.30
2022-10-20T06:25:05.280Z,3.90
2022-10-20T06:26:05.171Z,4.00
2022-10-20T06:27:11.492Z,4.20
2022-10-20T06:28:05.448Z,4.00
2022-10-20T06:29:05.163Z,4.20
2022-10-20T06:30:05.170Z,4.50
2022-10-20T06:31:05.088Z,5.00
2022-10-20T06:32:06.892Z,4.30
2022-10-20T06:33:12.486Z,4.40
2022-10-20T06:34:05.624Z,4.20
2022-10-20T06:35:05.138Z,4.60
2022-10-20T06:36:05.139Z,4.30
2022-10-20T06:37:05.080Z,5.20
2022-10-20T06:38:05.094Z,5.00
2022-10-20T06:39:11.891Z,4.90
2022-10-20T06:40:04.961Z,4.50
2022-10-20T06:41:04.994Z,4.60
2022-10-20T06:42:09.461Z,4.60
2022-10-20T06:43:06.577Z,4.90
2022-10-20T06:44:13.783Z,4.40
2022-10-20T06:45:05.001Z,5.10
2022-10-20T06:46:05.083Z,4.50
2022-10-20T06:47:05.197Z,4.90
2022-10-20T06:48:04.851Z,4.60
2022-10-20T06:49:04.859Z,4.20
2022-10-20T06:50:11.301Z,4.30
2022-10-20T06:51:04.836Z,4.90
2022-10-20T06:52:05.066Z,5.00
2022-10-20T06:53:04.955Z,4.90
2022-10-20T06:54:05.191Z,5.40
2022-10-20T06:55:04.963Z,5.60
2022-10-20T06:56:11.948Z,5.80
2022-10-20T06:57:04.807Z,5.20
2022-10-20T06:58:05.139Z,4.40
2022-10-20T06:59:04.947Z,4.90
2022-10-20T07:00:05.085Z,4.80
2022-10-20T07:01:08.297Z,5.00
2022-10-20T07:02:12.935Z,4.80
2022-10-20T07:03:04.690Z,5.00
2022-10-20T07:04:05.717Z,5.60
2022-10-20T07:05:04.734Z,4.60
2022-10-20T07:06:04.806Z,5.10
2022-10-20T07:07:04.706Z,4.60
2022-10-20T07:08:11.087Z,4.70
2022-10-20T07:09:04.718Z,4.40
2022-10-20T07:10:04.806Z,5.00
2022-10-20T07:11:04.697Z,5.70
2022-10-20T07:12:04.593Z,5.20
2022-10-20T07:13:04.569Z,4.80
2022-10-20T07:14:11.013Z,4.70
2022-10-20T07:15:04.655Z,4.80
2022-10-20T07:16:04.586Z,5.60
2022-10-20T07:17:04.660Z,4.60
2022-10-20T07:18:04.844Z,5.00
2022-10-20T07:19:04.589Z,5.10
2022-10-20T07:20:10.974Z,6.20
2022-10-20T07:21:04.505Z,5.00
2022-10-20T07:22:04.633Z,5.30
2022-10-20T07:23:04.476Z,5.00
2022-10-20T07:24:04.504Z,5.00
2022-10-20T07:25:04.543Z,6.00
2022-10-20T07:26:11.333Z,5.50
2022-10-20T07:27:05.345Z,4.40
2022-10-20T07:28:05.115Z,4.70
2022-10-20T07:29:04.422Z,4.80
2022-10-20T07:30:04.466Z,4.80
2022-10-20T07:31:04.438Z,4.60
2022-10-20T07:32:11.282Z,5.10
2022-10-20T07:33:05.496Z,4.50
2022-10-20T07:34:23.826Z,5.00
2022-10-20T07:35:05.920Z,7.20
2022-10-20T07:36:04.618Z,5.40
2022-10-20T07:37:11.496Z,5.20
2022-10-20T07:38:04.519Z,5.30
2022-10-20T07:39:04.422Z,5.50
2022-10-20T07:40:04.819Z,5.40
2022-10-20T07:41:04.327Z,5.50
2022-10-20T07:42:04.539Z,6.10
2022-10-20T07:43:10.814Z,6.00
2022-10-20T07:44:04.480Z,5.70
2022-10-20T07:45:04.443Z,5.40
2022-10-20T07:46:12.385Z,5.50
2022-10-20T07:47:04.149Z,5.70
2022-10-20T07:48:10.547Z,5.10
2022-10-20T07:49:38.283Z,5.20
2022-10-20T07:50:05.108Z,5.90
2022-10-20T07:51:04.168Z,5.40
2022-10-20T07:52:04.397Z,4.90
2022-10-20T07:53:10.450Z,6.00
2022-10-20T07:54:05.334Z,5.20
2022-10-20T07:55:17.899Z,5.30
2022-10-20T07:56:05.090Z,5.20
2022-10-20T07:57:03.973Z,4.90
2022-10-20T07:58:11.232Z,5.40
2022-10-20T07:59:03.969Z,5.80
2022-10-20T08:00:04.080Z,5.60
2022-10-20T08:01:03.969Z,5.30
2022-10-20T08:02:04.046Z,7.40
2022-10-20T08:03:04.004Z,5.00
2022-10-20T08:04:10.335Z,5.60
2022-10-20T08:05:04.071Z,4.60
2022-10-20T08:06:03.929Z,4.80
2022-10-20T08:07:04.066Z,5.30
2022-10-20T08:08:03.901Z,4.80
2022-10-20T08:09:10.204Z,5.00
2022-10-20T08:10:04.003Z,5.20
2022-10-20T08:11:24.852Z,6.10
2022-10-20T08:12:03.879Z,4.90
2022-10-20T08:13:04.565Z,4.60
2022-10-20T08:14:10.136Z,5.70
2022-10-20T08:15:04.386Z,4.90
2022-10-20T08:16:07.314Z,4.80
2022-10-20T08:17:03.969Z,4.20
2022-10-20T08:18:03.715Z,5.70
2022-10-20T08:19:20.261Z,4.50
2022-10-20T08:20:07.982Z,4.50
2022-10-20T08:21:03.839Z,3.90
2022-10-20T08:22:03.696Z,3.90
2022-10-20T08:23:03.740Z,4.10
2022-10-20T08:24:03.800Z,4.30
2022-10-20T08:25:10.263Z,3.90
2022-10-20T08:26:06.760Z,3.90
2022-10-20T08:27:05.163Z,4.20
2022-10-20T08:28:03.673Z,4.10
2022-10-20T08:29:03.694Z,4.30
2022-10-20T08:30:29.142Z,4.00
2022-10-20T08:31:05.029Z,3.80
2022-10-20T08:32:03.550Z,3.70
2022-10-20T08:33:03.590Z,4.00
2022-10-20T08:34:03.598Z,3.90
2022-10-20T08:35:03.679Z,4.00
2022-10-20T08:36:09.939Z,4.40
2022-10-20T08:37:03.773Z,3.70
2022-10-20T08:38:03.468Z,4.10
2022-10-20T08:39:06.042Z,3.80
2022-10-20T08:40:03.637Z,3.50
2022-10-20T08:41:09.766Z,4.30
2022-10-20T08:42:08.548Z,3.70
2022-10-20T08:43:04.883Z,3.60
2022-10-20T08:44:03.386Z,3.60
2022-10-20T08:45:03.461Z,3.50
2022-10-20T08:46:03.402Z,3.90
2022-10-20T08:47:09.839Z,4.10
2022-10-20T08:48:03.402Z,4.70
2022-10-20T08:49:03.398Z,4.60
2022-10-20T08:50:03.599Z,3.80
2022-10-20T08:51:03.423Z,3.90
2022-10-20T08:52:03.547Z,3.50
2022-10-20T08:53:09.593Z,3.70
2022-10-20T08:54:03.217Z,3.60
2022-10-20T08:55:03.756Z,3.60
2022-10-20T08:56:03.239Z,3.90
2022-10-20T08:57:03.303Z,3.50
2022-10-20T08:58:04.102Z,4.00
2022-10-20T08:59:09.782Z,4.20
2022-10-20T09:00:08.076Z,3.30
2022-10-20T09:01:05.936Z,3.40
2022-10-20T09:02:03.623Z,4.20
2022-10-20T09:03:04.261Z,3.40
2022-10-20T09:04:10.743Z,3.90
2022-10-20T09:05:04.228Z,3.70
2022-10-20T09:06:03.258Z,4.00
2022-10-20T09:07:03.336Z,3.70
2022-10-20T09:08:03.271Z,4.00
2022-10-20T09:09:03.434Z,4.10
2022-10-20T09:10:09.480Z,3.80
2022-10-20T09:11:03.714Z,3.60
2022-10-20T09:12:03.169Z,3.90
2022-10-20T09:13:06.029Z,3.70
2022-10-20T09:14:04.233Z,3.40
2022-10-20T09:15:09.521Z,3.80
2022-10-20T09:16:07.249Z,3.60
2022-10-20T09:17:06.030Z,3.90
2022-10-20T09:18:04.058Z,3.40
2022-10-20T09:19:04.238Z,3.20
2022-10-20T09:20:04.102Z,4.10
2022-10-20T09:21:11.151Z,3.70
2022-10-20T09:22:03.594Z,3.50
2022-10-20T09:23:16.685Z,3.80
2022-10-20T09:24:06.208Z,3.10
2022-10-20T09:25:03.047Z,3.10
2022-10-20T09:26:03.047Z,3.70
2022-10-20T09:27:09.479Z,3.30
2022-10-20T09:28:04.012Z,4.60
2022-10-20T09:29:12.866Z,3.50
2022-10-20T09:30:04.375Z,3.80
2022-10-20T09:31:07.065Z,3.90
2022-10-20T09:32:34.238Z,3.70
2022-10-20T09:33:04.361Z,3.70
2022-10-20T09:34:03.279Z,3.30
2022-10-20T09:35:04.834Z,3.30
2022-10-20T09:36:02.989Z,2.90
2022-10-20T09:37:09.147Z,3.50
2022-10-20T09:38:02.836Z,3.50
2022-10-20T09:39:03.178Z,5.60
2022-10-20T09:40:04.007Z,3.50
2022-10-20T09:41:09.168Z,3.30
2022-10-20T09:43:09.818Z,3.30
2022-10-20T09:44:02.977Z,4.00
2022-10-20T09:45:03.739Z,3.70
2022-10-20T09:46:03.607Z,3.80
2022-10-20T09:47:03.609Z,3.60
2022-10-20T09:48:03.182Z,3.40
2022-10-20T09:49:12.257Z,3.30
2022-10-20T09:50:02.686Z,3.90
2022-10-20T09:51:02.716Z,3.70
2022-10-20T09:52:02.799Z,3.50
2022-10-20T09:53:02.780Z,4.00
2022-10-20T09:54:09.429Z,4.00
2022-10-20T09:55:02.846Z,3.50
2022-10-20T09:56:02.730Z,3.80
2022-10-20T09:57:03.631Z,3.80
2022-10-20T09:58:11.829Z,3.00
2022-10-20T09:59:03.157Z,3.00
2022-10-20T10:00:25.533Z,3.40
2022-10-20T10:01:03.588Z,3.10
2022-10-20T10:02:02.397Z,2.80
2022-10-20T10:03:02.481Z,3.40
2022-10-20T10:04:02.717Z,3.60
2022-10-20T10:05:03.914Z,3.50
2022-10-20T10:06:09.410Z,2.80
2022-10-20T10:07:03.981Z,3.20
2022-10-20T10:08:03.473Z,4.00
2022-10-20T10:09:02.609Z,2.90
2022-10-20T10:10:07.368Z,2.50
2022-10-20T10:11:05.346Z,2.60
2022-10-20T10:12:14.508Z,2.60
2022-10-20T10:13:02.568Z,2.40
2022-10-20T10:14:02.682Z,2.10
2022-10-20T10:15:03.049Z,2.10
2022-10-20T10:16:04.961Z,2.20
2022-10-20T10:17:02.605Z,2.10
2022-10-20T10:18:09.098Z,1.90
2022-10-20T10:19:04.902Z,2.10
2022-10-20T10:20:03.301Z,2.20
2022-10-20T10:21:02.525Z,2.00
2022-10-20T10:22:02.246Z,1.70
2022-10-20T10:23:09.158Z,2.80
2022-10-20T10:24:08.564Z,1.60
2022-10-20T10:25:02.708Z,1.80
2022-10-20T10:26:04.893Z,2.10
2022-10-20T10:27:07.732Z,2.80
2022-10-20T10:28:08.926Z,1.50
2022-10-20T10:29:02.102Z,2.00
2022-10-20T10:30:02.476Z,2.00
2022-10-20T10:31:02.022Z,2.40
2022-10-20T10:32:02.009Z,1.60
2022-10-20T10:33:01.993Z,2.30
2022-10-20T10:34:08.475Z,1.50
2022-10-20T10:35:02.889Z,2.00
2022-10-20T10:36:03.286Z,1.80
2022-10-20T10:37:02.995Z,2.00
2022-10-20T10:38:01.984Z,2.30
2022-10-20T10:39:02.258Z,2.40
2022-10-20T10:40:09.160Z,2.30
2022-10-20T10:41:01.903Z,2.10
2022-10-20T10:42:01.874Z,2.00
2022-10-20T10:43:02.085Z,2.60
2022-10-20T10:44:02.795Z,1.90
2022-10-20T10:45:08.179Z,1.90
2022-10-20T10:46:01.965Z,1.60
2022-10-20T10:47:02.283Z,1.80
2022-10-20T10:48:01.851Z,2.20
2022-10-20T10:49:02.246Z,1.90
2022-10-20T10:50:01.803Z,2.40
2022-10-20T10:51:08.977Z,2.50
2022-10-20T10:52:03.353Z,1.90
2022-10-20T10:53:01.825Z,2.30
2022-10-20T10:54:01.956Z,2.00
2022-10-20T10:55:01.869Z,2.10
2022-10-20T10:56:05.946Z,2.10
2022-10-20T10:57:10.425Z,2.90
2022-10-20T10:58:02.735Z,2.00
2022-10-20T10:59:02.612Z,3.20
2022-10-20T11:00:01.662Z,2.20
2022-10-20T11:01:02.643Z,2.40
2022-10-20T11:02:01.867Z,1.80
2022-10-20T11:03:07.996Z,2.00
2022-10-20T11:04:02.815Z,1.60
2022-10-20T11:05:08.185Z,1.50
2022-10-20T11:06:02.533Z,1.90
2022-10-20T11:07:01.637Z,1.80
2022-10-20T11:08:01.588Z,1.60
2022-10-20T11:09:08.333Z,1.70
2022-10-20T11:10:02.201Z,2.00
2022-10-20T11:11:01.545Z,2.30
2022-10-20T11:12:02.616Z,1.70
2022-10-20T11:13:01.648Z,1.80
2022-10-20T11:14:02.463Z,1.90
2022-10-20T11:15:08.125Z,2.50
2022-10-20T11:16:01.465Z,1.80
2022-10-20T11:17:01.439Z,1.70
2022-10-20T11:18:04.278Z,2.00
2022-10-20T11:19:01.483Z,1.60
2022-10-20T11:20:07.924Z,1.60
2022-10-20T11:21:01.533Z,1.60
2022-10-20T11:22:03.845Z,1.50
2022-10-20T11:23:01.364Z,1.60
2022-10-20T11:24:01.384Z,1.70
2022-10-20T11:25:07.701Z,1.60
2022-10-20T11:26:01.901Z,2.20
2022-10-20T11:27:02.578Z,1.30
2022-10-20T11:28:01.712Z,1.40
2022-10-20T11:29:01.343Z,1.20
2022-10-20T11:30:01.435Z,1.90
2022-10-20T11:31:07.637Z,1.80
2022-10-20T11:32:01.265Z,1.50
2022-10-20T11:33:01.431Z,1.70
2022-10-20T11:34:01.224Z,1.90
2022-10-20T11:35:01.650Z,1.40
2022-10-20T11:36:07.925Z,1.40
2022-10-20T11:37:01.177Z,1.70
2022-10-20T11:38:01.217Z,1.80
2022-10-20T11:39:01.345Z,1.50
2022-10-20T11:40:04.577Z,1.50
2022-10-20T11:41:09.012Z,1.60
2022-10-20T11:42:01.144Z,1.60
2022-10-20T11:43:01.220Z,1.20
2022-10-20T11:44:01.152Z,1.20
2022-10-20T11:45:01.200Z,1.90
2022-10-20T11:46:01.178Z,1.50
2022-10-20T11:47:07.410Z,1.50
2022-10-20T11:48:01.023Z,1.60
2022-10-20T11:49:01.894Z,1.60
2022-10-20T11:50:01.007Z,1.20
2022-10-20T11:51:01.137Z,1.50
2022-10-20T11:52:01.057Z,1.40
2022-10-20T11:53:07.308Z,1.30
2022-10-20T11:54:01.040Z,0.70
2022-10-20T11:55:00.966Z,1.50
2022-10-20T11:56:00.971Z,1.10
2022-10-20T11:57:00.935Z,1.50
2022-10-20T11:58:01.834Z,1.20
2022-10-20T11:59:07.532Z,1.20
2022-10-20T12:00:00.941Z,1.10
2022-10-20T12:01:00.899Z,1.00
2022-10-20T12:02:00.982Z,1.00
2022-10-20T12:03:01.136Z,1.20
2022-10-20T12:04:07.340Z,1.60
2022-10-20T12:05:01.094Z,1.20
2022-10-20T12:06:01.021Z,2.00
2022-10-20T12:07:00.806Z,1.30
2022-10-20T12:08:24.645Z,1.70
2022-10-20T12:09:08.145Z,1.10
2022-10-20T12:10:00.789Z,1.20
2022-10-20T12:11:00.713Z,1.30
2022-10-20T12:12:00.701Z,1.20
2022-10-20T12:13:00.741Z,1.50
2022-10-20T12:14:01.060Z,1.00
2022-10-20T12:15:07.197Z,1.40
2022-10-20T12:16:00.698Z,2.10
2022-10-20T12:17:00.691Z,1.50
2022-10-20T12:18:01.292Z,1.20
2022-10-20T12:20:04.938Z,2.20
2022-10-20T12:21:07.319Z,1.60
2022-10-20T12:22:00.804Z,1.20
2022-10-20T12:23:00.944Z,1.40
2022-10-20T12:24:00.753Z,1.20
2022-10-20T12:25:01.052Z,1.10
2022-10-20T12:26:00.627Z,1.20
2022-10-20T12:27:10.901Z,1.30
2022-10-20T12:29:00.789Z,1.50
2022-10-20T12:30:00.595Z,1.00
2022-10-20T12:31:00.591Z,1.00
2022-10-20T12:32:00.597Z,1.30
2022-10-20T12:33:06.854Z,1.00
2022-10-20T12:34:00.481Z,1.60
2022-10-20T12:35:01.533Z,1.50
2022-10-20T12:36:01.549Z,1.00
2022-10-20T12:37:00.499Z,1.10
2022-10-20T12:38:06.912Z,1.10
2022-10-20T12:39:00.889Z,1.10
2022-10-20T12:40:00.769Z,1.30
2022-10-20T12:41:01.761Z,1.20
2022-10-20T12:42:01.555Z,1.20
2022-10-20T12:43:07.501Z,1.20
2022-10-20T12:44:00.432Z,1.40
2022-10-20T12:45:01.325Z,1.20
2022-10-20T12:46:00.785Z,1.10
2022-10-20T12:47:00.451Z,1.30
2022-10-20T12:48:01.203Z,2.00
2022-10-20T12:49:12.135Z,1.20
2022-10-20T12:50:06.557Z,1.20
2022-10-20T12:51:00.437Z,1.10
2022-10-20T12:52:01.353Z,1.70
2022-10-20T12:53:00.421Z,1.40
2022-10-20T12:54:06.780Z,1.30
2022-10-20T12:55:00.713Z,1.30
2022-10-20T12:56:00.207Z,2.70
2022-10-20T12:57:00.554Z,1.40
2022-10-20T12:58:00.231Z,1.60
2022-10-20T12:59:06.921Z,1.60
2022-10-20T13:00:00.447Z,1.10
2022-10-20T13:01:00.267Z,1.10
2022-10-20T13:02:00.154Z,1.30
2022-10-20T13:03:00.287Z,0.90
2022-10-20T13:04:06.465Z,1.00
2022-10-20T13:05:00.352Z,1.70
2022-10-20T13:06:00.321Z,1.30
2022-10-20T13:07:00.427Z,1.50
2022-10-20T13:08:00.123Z,1.50
2022-10-20T13:09:07.364Z,1.50
2022-10-20T13:10:01.826Z,1.20
2022-10-20T13:11:00.507Z,1.30
2022-10-20T13:12:00.026Z,1.10
2022-10-20T13:13:00.001Z,1.40
2022-10-20T13:14:06.514Z,1.10
2022-10-20T13:14:59.906Z,1.20
2022-10-20T13:16:00.110Z,1.30
2022-10-20T13:17:00.416Z,1.30
2022-10-20T13:18:04.540Z,1.20
2022-10-20T13:18:59.973Z,1.30
2022-10-20T13:20:07.007Z,1.80
2022-10-20T13:21:04.061Z,1.90
2022-10-20T13:22:00.677Z,1.60